KHDN/HDN METAR and TAF weather

Enter ICAO airport designator
Station Type Date Time Source
KHDN METAR 2021/07/30 22:56 UTC NOAA

KHDN 302256Z AUTO 00000KT 10SM CLR 28/08 A3027 RMK AO2 LTG DSNT ALQDS SLP156 T02830078


Station Type Date Time Source
KHDN Decoded METAR 2021/07/30 22:56 UTC NOAA

Hayden, Yampa Valley Airport, CO, United States (KHDN) 40-29N 107-13W
Jul 30, 2021 - 06:56 PM EDT / 2021.07.30 2256 UTC
Wind: Calm:0
Visibility: 10 mile(s):0
Sky conditions: clear
Weather: Lightning observed
Temperature: 82.9 F (28.3 C)
Dew Point: 46.0 F (7.8 C)
Relative Humidity: 27%
Pressure (altimeter): 30.27 in. Hg (1025 hPa)
ob: KHDN 302256Z AUTO 00000KT 10SM CLR 28/08 A3027 RMK AO2 LTG DSNT ALQDS SLP156 T02830078
cycle: 23

Station Type Date Time Source
KHDN TAF 2021/07/30 21:06 UTC NOAA

TAF
AMD KHDN 302103Z 3021/3118 28010KT P6SM VCTS BKN100CB
TEMPO 3021/3022 VRB15G25KT 5SM -TSRA BKN070CB
FM302300 15009G20KT P6SM SCT070 BKN250
FM310600 12008KT P6SM VCSH SCT060 BKN070
FM311200 10006KT P6SM FEW060 SCT100

Example: see airport list